Terminal Aerodrome Forecast
Issued by NWS

Home | Current Version | Previous Version | Text Only | Print | Product List | Glossary On
Versions: 1 2 3 4 5 6 7 8 9 10 11 12 13 14
348
FTUS45 KVEF 300526
TAFDAG
TAF
KDAG 300526Z 3006/3106 24014KT P6SM SCT150
     FM300900 27010KT P6SM BKN150
     FM302100 27012G20KT P6SM BKN150=

USA.gov is the U.S. government's official web portal to all federal, state and local government web resources and services.